createdAt,value
2016-04-13T00:00:17.813Z,0
2016-04-13T00:01:17.863Z,0
2016-04-13T00:02:17.913Z,0
2016-04-13T00:03:17.930Z,0
2016-04-13T00:04:17.965Z,0
2016-04-13T00:05:17.999Z,0
2016-04-13T00:06:18.032Z,0
2016-04-13T00:07:18.082Z,0
2016-04-13T00:08:18.104Z,0
2016-04-13T00:09:18.154Z,0
2016-04-13T00:10:18.173Z,0
2016-04-13T00:11:18.222Z,0
2016-04-13T00:12:18.256Z,0
2016-04-13T00:13:18.290Z,0
2016-04-13T00:14:18.324Z,0
2016-04-13T00:15:18.389Z,0
2016-04-13T00:16:18.392Z,0
2016-04-13T00:17:18.425Z,0
2016-04-13T00:18:18.475Z,0
2016-04-13T00:19:18.494Z,0
2016-04-13T00:20:18.543Z,0
2016-04-13T00:21:18.594Z,0
2016-04-13T00:22:18.675Z,0
2016-04-13T00:23:18.660Z,0
2016-04-13T00:24:18.711Z,0
2016-04-13T00:25:18.713Z,0
2016-04-13T00:26:18.747Z,0
2016-04-13T00:27:18.797Z,0
2016-04-13T00:28:18.830Z,0
2016-04-13T00:29:18.865Z,0
2016-04-13T00:30:18.914Z,0
2016-04-13T00:31:18.932Z,0
2016-04-13T00:32:18.810Z,0
2016-04-13T00:33:19.016Z,0
2016-04-13T00:34:19.049Z,0
2016-04-13T00:35:19.084Z,0
2016-04-13T00:36:19.118Z,0
2016-04-13T00:37:19.182Z,0
2016-04-13T00:38:19.185Z,0
2016-04-13T00:39:19.219Z,0
2016-04-13T00:40:19.253Z,0
2016-04-13T00:41:19.304Z,0
2016-04-13T00:42:19.337Z,0
2016-04-13T00:43:19.371Z,0
2016-04-13T00:44:19.405Z,0
2016-04-13T00:45:19.439Z,0
2016-04-13T00:46:19.473Z,0
2016-04-13T00:47:19.507Z,0
2016-04-13T00:48:19.556Z,0
2016-04-13T00:49:19.575Z,0
2016-04-13T00:50:19.625Z,0
2016-04-13T00:51:19.674Z,0
2016-04-13T00:52:19.691Z,0
2016-04-13T00:53:19.725Z,0
2016-04-13T00:54:19.775Z,0
2016-04-13T00:55:19.794Z,0
2016-04-13T00:56:19.827Z,0
2016-04-13T00:57:19.861Z,0
2016-04-13T00:58:19.911Z,0
2016-04-13T00:59:19.960Z,0
2016-04-13T01:00:19.979Z,0
2016-04-13T01:01:19.997Z,0
2016-04-13T01:02:19.890Z,0
2016-04-13T01:03:20.081Z,0
2016-04-13T01:04:20.130Z,0
2016-04-13T01:05:20.148Z,0
2016-04-13T01:06:20.182Z,0
2016-04-13T01:07:20.217Z,0
2016-04-13T01:08:20.110Z,0
2016-04-13T01:09:20.301Z,0
2016-04-13T01:10:20.351Z,0
2016-04-13T01:11:20.384Z,0
2016-04-13T01:12:20.390Z,0
2016-04-13T01:13:20.456Z,0
2016-04-13T01:14:20.474Z,0
2016-04-13T01:15:20.507Z,0
2016-04-13T01:16:20.573Z,0
2016-04-13T01:17:20.591Z,0
2016-04-13T01:18:20.609Z,0
2016-04-13T01:19:20.643Z,0
2016-04-13T01:20:20.693Z,0
2016-04-13T01:21:20.821Z,0
2016-04-13T01:22:20.750Z,0
2016-04-13T01:23:20.783Z,0
2016-04-13T01:24:20.833Z,0
2016-04-13T01:25:20.867Z,0
2016-04-13T01:26:20.900Z,0
2016-04-13T01:27:20.935Z,0
2016-04-13T01:28:20.969Z,0
2016-04-13T01:29:21.018Z,0
2016-04-13T01:30:21.036Z,0
2016-04-13T01:32:21.104Z,0
2016-04-13T01:33:21.169Z,0
2016-04-13T01:34:21.188Z,0
2016-04-13T01:35:21.221Z,0
2016-04-13T01:36:21.255Z,0
2016-04-13T01:37:21.304Z,0
2016-04-13T01:38:21.323Z,0
2016-04-13T01:39:21.357Z,0
2016-04-13T01:40:21.391Z,0
2016-04-13T01:41:21.426Z,0
2016-04-13T01:42:21.459Z,0
2016-04-13T01:43:21.509Z,0
2016-04-13T01:44:21.543Z,0
2016-04-13T01:45:21.593Z,0
2016-04-13T01:46:21.595Z,0
2016-04-13T01:47:21.645Z,0
2016-04-13T01:48:21.679Z,0
2016-04-13T01:49:21.712Z,0
2016-04-13T01:50:21.747Z,0
2016-04-13T01:51:21.842Z,0
2016-04-13T01:52:21.814Z,0
2016-04-13T01:53:21.864Z,0
2016-04-13T01:54:21.897Z,0
2016-04-13T01:55:21.942Z,0
2016-04-13T01:56:22.019Z,0
2016-04-13T01:57:22.096Z,0
2016-04-13T01:58:22.174Z,0
2016-04-13T01:59:22.265Z,0
2016-04-13T02:00:22.336Z,0
2016-04-13T02:01:22.369Z,0
2016-04-13T02:02:22.419Z,0
2016-04-13T02:03:22.468Z,0
2016-04-13T02:04:22.517Z,0
2016-04-13T02:05:22.564Z,0
2016-04-13T02:06:22.964Z,0
2016-04-13T02:07:22.658Z,0
2016-04-13T02:08:22.698Z,0
2016-04-13T02:09:22.738Z,0
2016-04-13T02:10:22.775Z,0
2016-04-13T02:11:22.811Z,0
2016-04-13T02:12:22.847Z,0
2016-04-13T02:13:22.867Z,0
2016-04-13T02:14:22.920Z,0
2016-04-13T02:15:22.954Z,0
2016-04-13T02:16:23.005Z,0
2016-04-13T02:17:23.056Z,0
2016-04-13T02:18:23.074Z,0
2016-04-13T02:19:23.124Z,0
2016-04-13T02:20:23.143Z,0
2016-04-13T02:21:23.084Z,0
2016-04-13T02:22:23.212Z,0
2016-04-13T02:23:23.247Z,0
2016-04-13T02:24:23.281Z,0
2016-04-13T02:25:23.315Z,0
2016-04-13T02:26:23.349Z,0
2016-04-13T02:27:23.398Z,0
2016-04-13T02:28:23.433Z,0
2016-04-13T02:29:23.451Z,0
2016-04-13T02:30:37.660Z,0
2016-04-13T02:31:23.520Z,0
2016-04-13T02:32:23.569Z,0
2016-04-13T02:33:23.603Z,0
2016-04-13T02:34:23.637Z,0
2016-04-13T02:35:23.670Z,0
2016-04-13T02:36:23.955Z,0
2016-04-13T02:37:23.739Z,0
2016-04-13T02:38:23.756Z,0
2016-04-13T02:39:23.791Z,0
2016-04-13T02:40:23.091Z,0
2016-04-13T02:41:23.874Z,0
2016-04-13T02:42:23.908Z,0
2016-04-13T02:43:23.942Z,0
2016-04-13T02:44:23.976Z,0
2016-04-13T02:45:23.993Z,0
2016-04-13T02:46:24.043Z,0
2016-04-13T02:47:24.094Z,0
2016-04-13T02:48:24.112Z,0
2016-04-13T02:49:24.146Z,0
2016-04-13T02:50:24.179Z,0
2016-04-13T02:51:24.338Z,0
2016-04-13T02:52:24.263Z,0
2016-04-13T02:53:24.281Z,0
2016-04-13T02:54:24.331Z,0
2016-04-13T02:55:24.348Z,0
2016-04-13T02:56:24.398Z,0
2016-04-13T02:57:24.432Z,0
2016-04-13T02:58:24.466Z,0
2016-04-13T02:59:24.500Z,0
2016-04-13T03:00:24.534Z,0
2016-04-13T03:01:24.568Z,0
2016-04-13T03:02:24.603Z,0
2016-04-13T03:03:24.636Z,0
2016-04-13T03:04:24.655Z,0
2016-04-13T03:05:24.720Z,0
2016-04-13T03:06:24.942Z,0
2016-04-13T03:07:24.772Z,0
2016-04-13T03:08:24.806Z,0
2016-04-13T03:09:24.839Z,0
2016-04-13T03:10:24.874Z,0
2016-04-13T03:11:24.908Z,0
2016-04-13T03:12:24.941Z,0
2016-04-13T03:13:24.975Z,0
2016-04-13T03:14:25.040Z,0
2016-04-13T03:15:25.060Z,0
2016-04-13T03:16:25.094Z,0
2016-04-13T03:17:25.127Z,0
2016-04-13T03:18:25.146Z,0
2016-04-13T03:19:25.195Z,0
2016-04-13T03:20:25.229Z,0
2016-04-13T03:21:25.372Z,0
2016-04-13T03:22:25.141Z,0
2016-04-13T03:23:25.315Z,0
2016-04-13T03:24:25.364Z,0
2016-04-13T03:25:25.414Z,0
2016-04-13T03:26:25.448Z,0
2016-04-13T03:27:25.481Z,0
2016-04-13T03:28:25.500Z,0
2016-04-13T03:29:25.534Z,0
2016-04-13T03:30:25.568Z,0
2016-04-13T03:31:25.618Z,0
2016-04-13T03:32:25.651Z,0
2016-04-13T03:33:25.701Z,0
2016-04-13T03:34:25.720Z,0
2016-04-13T03:35:25.753Z,0
2016-04-13T03:36:25.866Z,0
2016-04-13T03:37:25.822Z,0
2016-04-13T03:38:25.855Z,0
2016-04-13T03:39:25.889Z,0
2016-04-13T03:40:25.913Z,0
2016-04-13T03:41:25.946Z,0
2016-04-13T03:42:26.011Z,0
2016-04-13T03:43:26.029Z,0
2016-04-13T03:44:26.064Z,0
2016-04-13T03:45:26.098Z,0
2016-04-13T03:46:26.132Z,0
2016-04-13T03:47:26.181Z,0
2016-04-13T03:48:26.199Z,0
2016-04-13T03:49:26.249Z,0
2016-04-13T03:50:26.282Z,0
2016-04-13T03:51:26.364Z,0
2016-04-13T03:52:26.351Z,0
2016-04-13T03:53:26.384Z,0
2016-04-13T03:54:26.418Z,0
2016-04-13T03:55:26.453Z,0
2016-04-13T03:56:26.487Z,0
2016-04-13T03:57:26.536Z,0
2016-04-13T03:58:26.554Z,0
2016-04-13T03:59:26.589Z,0
2016-04-13T04:00:26.639Z,0
2016-04-13T04:01:26.656Z,0
2016-04-13T04:02:26.690Z,0
2016-04-13T04:03:26.724Z,0
2016-04-13T04:04:26.758Z,0
2016-04-13T04:05:26.808Z,0
2016-04-13T04:06:26.716Z,0
2016-04-13T04:07:26.860Z,0
2016-04-13T04:08:26.738Z,0
2016-04-13T04:09:26.944Z,0
2016-04-13T04:10:26.961Z,0
2016-04-13T04:11:27.011Z,4
2016-04-13T04:12:27.030Z,4
2016-04-13T04:13:27.095Z,0
2016-04-13T04:14:27.130Z,4
2016-04-13T04:15:27.147Z,4
2016-04-13T04:16:27.182Z,4
2016-04-13T04:17:27.199Z,4
2016-04-13T04:18:27.265Z,4
2016-04-13T04:19:27.283Z,8
2016-04-13T04:20:27.348Z,8
2016-04-13T04:21:27.398Z,8
2016-04-13T04:22:27.384Z,8
2016-04-13T04:23:27.418Z,12
2016-04-13T04:24:27.453Z,12
2016-04-13T04:25:27.487Z,20
2016-04-13T04:26:27.536Z,24
2016-04-13T04:27:27.554Z,24
2016-04-13T04:28:27.589Z,28
2016-04-13T04:29:27.623Z,28
2016-04-13T04:30:27.672Z,32
2016-04-13T04:31:27.690Z,44
2016-04-13T04:32:27.740Z,52
2016-04-13T04:33:27.759Z,64
2016-04-13T04:34:27.808Z,76
2016-04-13T04:35:27.858Z,84
2016-04-13T04:36:27.891Z,104
2016-04-13T04:37:27.909Z,120
2016-04-13T04:38:27.959Z,140
2016-04-13T04:39:27.977Z,156
2016-04-13T04:40:28.011Z,176
2016-04-13T04:41:28.045Z,196
2016-04-13T04:42:28.080Z,212
2016-04-13T04:43:28.098Z,236
2016-04-13T04:44:28.147Z,252
2016-04-13T04:45:28.197Z,276
2016-04-13T04:46:28.230Z,296
2016-04-13T04:47:28.265Z,320
2016-04-13T04:48:28.298Z,344
2016-04-13T04:49:28.316Z,368
2016-04-13T04:50:28.366Z,396
2016-04-13T04:51:28.416Z,424
2016-04-13T04:52:28.434Z,456
2016-04-13T04:53:28.484Z,484
2016-04-13T04:54:28.517Z,520
2016-04-13T04:55:28.536Z,556
2016-04-13T04:56:28.585Z,592
2016-04-13T04:57:28.588Z,628
2016-04-13T04:58:28.638Z,672
2016-04-13T04:59:28.688Z,716
2016-04-13T05:00:28.721Z,760
2016-04-13T05:01:28.724Z,812
2016-04-13T05:02:28.773Z,864
2016-04-13T05:03:28.792Z,920
2016-04-13T05:04:28.842Z,972
2016-04-13T05:05:28.875Z,1036
2016-04-13T05:06:28.909Z,1084
2016-04-13T05:07:28.944Z,1132
2016-04-13T05:08:28.977Z,1176
2016-04-13T05:09:29.011Z,1228
2016-04-13T05:10:29.061Z,1288
2016-04-13T05:11:29.080Z,1356
2016-04-13T05:12:29.113Z,1420
2016-04-13T05:13:29.147Z,1484
2016-04-13T05:14:29.180Z,1560
2016-04-13T05:15:29.246Z,1632
2016-04-13T05:16:29.248Z,1712
2016-04-13T05:17:29.298Z,1796
2016-04-13T05:18:29.348Z,1900
2016-04-13T05:19:29.366Z,2040
2016-04-13T05:20:29.400Z,2272
2016-04-13T05:21:29.434Z,2440
2016-04-13T05:22:29.485Z,2604
2016-04-13T05:23:29.501Z,2680
2016-04-13T05:24:29.535Z,2728
2016-04-13T05:25:29.570Z,2756
2016-04-13T05:26:29.620Z,2740
2016-04-13T05:27:29.638Z,2732
2016-04-13T05:28:29.687Z,2760
2016-04-13T05:29:29.706Z,2780
2016-04-13T05:30:29.740Z,2764
2016-04-13T05:31:29.789Z,2700
2016-04-13T05:32:29.823Z,2540
2016-04-13T05:33:29.841Z,2260
2016-04-13T05:34:29.907Z,2116
2016-04-13T05:35:29.909Z,2280
2016-04-13T05:36:29.990Z,2576
2016-04-13T05:37:29.977Z,2844
2016-04-13T05:38:30.027Z,3156
2016-04-13T05:39:30.075Z,3448
2016-04-13T05:40:30.095Z,3728
2016-04-13T05:41:30.128Z,3980
2016-04-13T05:42:30.178Z,4084
2016-04-13T05:43:30.196Z,4112
2016-04-13T05:44:30.246Z,4136
2016-04-13T05:45:30.264Z,4096
2016-04-13T05:46:30.157Z,3716
2016-04-13T05:47:30.347Z,3136
2016-04-13T05:48:30.366Z,2888
2016-04-13T05:49:30.399Z,2960
2016-04-13T05:50:30.449Z,2952
2016-04-13T05:51:30.499Z,2960
2016-04-13T05:52:30.517Z,3084
2016-04-13T05:53:30.567Z,3144
2016-04-13T05:54:30.586Z,3236
2016-04-13T05:55:30.635Z,3304
2016-04-13T05:56:30.653Z,3392
2016-04-13T05:57:30.687Z,3500
2016-04-13T05:58:30.721Z,3492
2016-04-13T05:59:30.771Z,3452
2016-04-13T06:00:30.820Z,3476
2016-04-13T06:01:30.854Z,3472
2016-04-13T06:02:30.873Z,3492
2016-04-13T06:03:30.906Z,3540
2016-04-13T06:04:30.956Z,3576
2016-04-13T06:05:30.974Z,3524
2016-04-13T06:06:31.024Z,3548
2016-04-13T06:07:31.058Z,3688
2016-04-13T06:08:31.076Z,3680
2016-04-13T06:09:31.142Z,3848
2016-04-13T06:10:31.159Z,4040
2016-04-13T06:11:31.194Z,3980
2016-04-13T06:12:31.244Z,4656
2016-04-13T06:13:31.262Z,4708
2016-04-13T06:14:31.358Z,4928
2016-04-13T06:15:31.344Z,5608
2016-04-13T06:16:31.379Z,5616
2016-04-13T06:17:31.413Z,5292
2016-04-13T06:18:31.446Z,4616
2016-04-13T06:19:31.480Z,4688
2016-04-13T06:20:31.530Z,5132
2016-04-13T06:21:31.549Z,5128
2016-04-13T06:22:31.582Z,5380
2016-04-13T06:23:31.617Z,6340
2016-04-13T06:24:31.666Z,7984
2016-04-13T06:25:31.699Z,9908
2016-04-13T06:26:31.749Z,10244
2016-04-13T06:27:31.768Z,11436
2016-04-13T06:28:31.818Z,11760
2016-04-13T06:29:31.835Z,12772
2016-04-13T06:30:31.885Z,14508
2016-04-13T06:31:31.904Z,15380
2016-04-13T06:32:31.968Z,15424
2016-04-13T06:33:32.003Z,15348
2016-04-13T06:34:32.020Z,14012
2016-04-13T06:35:32.055Z,14604
2016-04-13T06:36:32.104Z,15884
2016-04-13T06:37:32.138Z,11832
2016-04-13T06:38:32.157Z,9828
2016-04-13T06:39:32.206Z,11300
2016-04-13T06:40:32.271Z,13648
2016-04-13T06:41:32.290Z,12844
2016-04-13T06:42:32.308Z,11436
2016-04-13T06:43:32.358Z,9340
2016-04-13T06:44:32.391Z,9012
2016-04-13T06:45:32.425Z,7424
2016-04-13T06:46:32.460Z,8288
2016-04-13T06:47:32.509Z,10392
2016-04-13T06:48:32.543Z,10272
2016-04-13T06:49:32.577Z,9124
2016-04-13T06:50:32.626Z,9516
2016-04-13T06:51:32.661Z,14140
2016-04-13T06:52:32.710Z,11364
2016-04-13T06:53:32.760Z,8036
2016-04-13T06:54:32.762Z,8680
2016-04-13T06:55:32.812Z,7828
2016-04-13T06:56:32.862Z,8980
2016-04-13T06:57:32.911Z,8960
2016-04-13T06:58:32.976Z,7588
2016-04-13T06:59:32.963Z,5148
2016-04-13T07:00:33.013Z,5268
2016-04-13T07:01:33.046Z,5924
2016-04-13T07:02:33.065Z,7648
2016-04-13T07:03:33.099Z,7832
2016-04-13T07:04:33.148Z,6384
2016-04-13T07:05:33.386Z,6192
2016-04-13T07:06:33.248Z,5952
2016-04-13T07:07:33.266Z,5628
2016-04-13T07:08:33.300Z,5932
2016-04-13T07:09:33.364Z,6660
2016-04-13T07:10:33.383Z,7144
2016-04-13T07:11:33.417Z,6324
2016-04-13T07:12:33.450Z,5812
2016-04-13T07:13:33.500Z,6572
2016-04-13T07:14:33.519Z,7580
2016-04-13T07:15:33.569Z,7504
2016-04-13T07:16:33.603Z,6696
2016-04-13T07:17:33.636Z,6296
2016-04-13T07:18:33.702Z,5980
2016-04-13T07:19:33.720Z,6488
2016-04-13T07:20:33.754Z,8064
2016-04-13T07:21:33.789Z,8304
2016-04-13T07:22:33.822Z,6336
2016-04-13T07:23:33.856Z,7044
2016-04-13T07:24:33.891Z,6772
2016-04-13T07:25:33.924Z,7256
2016-04-13T07:26:33.974Z,7544
2016-04-13T07:27:34.007Z,9080
2016-04-13T07:28:34.057Z,9564
2016-04-13T07:29:34.076Z,7736
2016-04-13T07:30:34.140Z,7232
2016-04-13T07:31:34.159Z,6440
2016-04-13T07:32:34.208Z,7888
2016-04-13T07:33:34.242Z,8424
2016-04-13T07:34:34.276Z,7172
2016-04-13T07:35:34.309Z,6976
2016-04-13T07:36:34.360Z,7256
2016-04-13T07:37:34.378Z,7044
2016-04-13T07:38:34.412Z,7248
2016-04-13T07:39:34.462Z,7528
2016-04-13T07:40:34.511Z,7924
2016-04-13T07:41:34.545Z,8012
2016-04-13T07:42:34.579Z,8000
2016-04-13T07:43:34.613Z,7472
2016-04-13T07:44:34.647Z,7932
2016-04-13T07:45:34.680Z,9216
2016-04-13T07:46:34.730Z,7928
2016-04-13T07:47:34.764Z,8344
2016-04-13T07:48:34.797Z,7984
2016-04-13T07:49:34.832Z,7424
2016-04-13T07:50:34.882Z,7460
2016-04-13T07:51:34.916Z,7648
2016-04-13T07:52:34.950Z,7808
2016-04-13T07:53:34.983Z,9444
2016-04-13T07:54:35.018Z,13992
2016-04-13T07:55:35.051Z,13056
2016-04-13T07:56:35.101Z,10336
2016-04-13T07:57:35.135Z,9432
2016-04-13T07:58:35.184Z,10256
2016-04-13T07:59:35.203Z,11340
2016-04-13T08:00:35.252Z,12812
2016-04-13T08:01:35.302Z,10560
2016-04-13T08:02:35.336Z,10328
2016-04-13T08:03:35.354Z,9960
2016-04-13T08:04:35.404Z,7792
2016-04-13T08:05:35.437Z,7288
2016-04-13T08:06:35.471Z,7844
2016-04-13T08:07:35.506Z,8620
2016-04-13T08:08:35.388Z,9336
2016-04-13T08:09:35.594Z,12216
2016-04-13T08:10:35.643Z,16448
2016-04-13T08:11:35.692Z,18304
2016-04-13T08:12:35.695Z,14096
2016-04-13T08:13:35.744Z,18304
2016-04-13T08:14:35.780Z,16416
2016-04-13T08:15:35.860Z,16256
2016-04-13T08:16:35.863Z,14788
2016-04-13T08:17:35.897Z,14664
2016-04-13T08:18:35.930Z,11124
2016-04-13T08:19:35.980Z,8088
2016-04-13T08:20:36.014Z,8008
2016-04-13T08:21:36.063Z,7620
2016-04-13T08:22:36.113Z,7876
2016-04-13T08:23:36.132Z,7652
2016-04-13T08:24:36.150Z,7380
2016-04-13T08:25:36.216Z,7384
2016-04-13T08:26:36.124Z,7384
2016-04-13T08:27:36.299Z,7668
2016-04-13T08:28:36.332Z,7936
2016-04-13T08:29:36.351Z,8352
2016-04-13T08:30:36.416Z,9540
2016-04-13T08:31:36.450Z,10244
2016-04-13T08:32:36.468Z,10448
2016-04-13T08:33:36.517Z,10088
2016-04-13T08:34:36.551Z,9900
2016-04-13T08:35:36.601Z,9836
2016-04-13T08:36:36.619Z,9648
2016-04-13T08:37:36.685Z,10120
2016-04-13T08:38:36.815Z,10524
2016-04-13T08:39:36.753Z,10744
2016-04-13T08:40:36.786Z,11800
2016-04-13T08:41:36.839Z,15456
2016-04-13T08:42:36.872Z,25376
2016-04-13T08:43:36.922Z,30592
2016-04-13T08:44:36.971Z,7640
2016-04-13T08:45:36.990Z,7348
2016-04-13T08:46:37.039Z,7184
2016-04-13T08:47:37.058Z,7620
2016-04-13T08:48:37.124Z,9924
2016-04-13T08:49:37.142Z,11020
2016-04-13T08:50:37.175Z,7764
2016-04-13T08:51:37.210Z,9468
2016-04-13T08:52:37.274Z,8664
2016-04-13T08:53:37.308Z,8964
2016-04-13T08:54:37.343Z,19104
2016-04-13T08:55:37.377Z,16896
2016-04-13T08:56:37.458Z,13516
2016-04-13T08:57:37.444Z,9736
2016-04-13T08:58:37.494Z,11200
2016-04-13T08:59:37.528Z,10228
2016-04-13T09:00:37.577Z,9044
2016-04-13T09:01:37.627Z,8928
2016-04-13T09:02:37.661Z,7836
2016-04-13T09:03:37.695Z,8680
2016-04-13T09:04:37.759Z,11016
2016-04-13T09:05:37.762Z,8984
2016-04-13T09:06:37.812Z,11356
2016-04-13T09:07:37.846Z,10852
2016-04-13T09:08:37.895Z,12344
2016-04-13T09:09:37.930Z,12444
2016-04-13T09:10:38.058Z,10852
2016-04-13T09:11:38.013Z,9368
2016-04-13T09:12:38.047Z,8656
2016-04-13T09:13:38.097Z,8424
2016-04-13T09:14:38.115Z,8332
2016-04-13T09:15:38.180Z,8232
2016-04-13T09:16:38.214Z,8076
2016-04-13T09:17:38.247Z,7920
2016-04-13T09:18:38.282Z,7720
2016-04-13T09:19:38.347Z,7628
2016-04-13T09:20:38.350Z,7608
2016-04-13T09:21:38.400Z,7636
2016-04-13T09:22:38.449Z,7672
2016-04-13T09:23:38.468Z,7772
2016-04-13T09:24:38.516Z,7864
2016-04-13T09:25:38.551Z,7872
2016-04-13T09:26:38.632Z,7920
2016-04-13T09:27:38.635Z,8008
2016-04-13T09:28:38.700Z,7996
2016-04-13T09:29:38.718Z,7892
2016-04-13T09:30:38.752Z,7884
2016-04-13T09:31:38.785Z,7888
2016-04-13T09:32:38.820Z,7804
2016-04-13T09:33:38.869Z,7732
2016-04-13T09:34:38.903Z,7748
2016-04-13T09:35:38.953Z,7872
2016-04-13T09:36:38.986Z,7924
2016-04-13T09:37:39.052Z,7892
2016-04-13T09:38:39.070Z,7928
2016-04-13T09:39:39.339Z,7872
2016-04-13T09:40:39.138Z,7804
2016-04-13T09:41:39.187Z,7724
2016-04-13T09:42:39.222Z,7672
2016-04-13T09:43:39.271Z,7620
2016-04-13T09:44:39.305Z,7556
2016-04-13T09:45:39.339Z,7476
2016-04-13T09:46:39.388Z,7428
2016-04-13T09:47:39.422Z,7348
2016-04-13T09:48:39.441Z,7304
2016-04-13T09:49:39.491Z,7212
2016-04-13T09:50:39.525Z,7032
2016-04-13T09:51:39.574Z,6836
2016-04-13T09:52:39.717Z,6732
2016-04-13T09:53:39.641Z,6672
2016-04-13T09:54:39.916Z,6688
2016-04-13T09:55:39.891Z,6728
2016-04-13T09:56:39.785Z,6740
2016-04-13T09:57:40.007Z,6700
2016-04-13T09:58:40.432Z,6632
2016-04-13T09:59:39.887Z,6524
2016-04-13T10:00:39.992Z,6428
2016-04-13T10:01:39.977Z,6380
2016-04-13T10:02:39.855Z,6288
2016-04-13T10:03:39.889Z,6168
2016-04-13T10:04:40.023Z,6152
2016-04-13T10:05:39.963Z,6088
2016-04-13T10:06:40.231Z,6008
2016-04-13T10:07:40.250Z,5940
2016-04-13T10:08:40.252Z,5916
2016-04-13T10:09:40.270Z,6136
2016-04-13T10:10:40.320Z,6432
2016-04-13T10:11:40.354Z,6568
2016-04-13T10:12:42.763Z,6784
2016-04-13T10:14:04.422Z,7020
2016-04-13T10:15:01.237Z,7120
2016-04-13T10:15:45.083Z,7192
2016-04-13T10:16:41.958Z,7268
2016-04-13T10:17:40.587Z,7312
2016-04-13T10:18:40.745Z,7300
2016-04-13T10:19:40.686Z,7280
2016-04-13T10:20:40.705Z,7288
2016-04-13T10:21:40.753Z,7328
2016-04-13T10:22:40.866Z,7368
2016-04-13T10:23:40.822Z,7424
2016-04-13T10:24:40.855Z,7480
2016-04-13T10:25:40.889Z,7496
2016-04-13T10:26:40.955Z,7544
2016-04-13T10:27:40.988Z,7516
2016-04-13T10:28:41.007Z,7500
2016-04-13T10:29:41.057Z,7476
2016-04-13T10:30:41.098Z,7452
2016-04-13T10:31:41.131Z,7404
2016-04-13T10:32:41.165Z,7336
2016-04-13T10:33:41.293Z,7192
2016-04-13T10:34:41.264Z,7048
2016-04-13T10:35:41.298Z,6904
2016-04-13T10:36:41.364Z,6792
2016-04-13T10:37:41.616Z,6816
2016-04-13T10:38:41.429Z,6916
2016-04-13T10:39:41.448Z,6932
2016-04-13T10:40:41.498Z,6932
2016-04-13T10:41:41.531Z,6916
2016-04-13T10:42:41.565Z,6872
2016-04-13T10:43:41.631Z,6868
2016-04-13T10:44:41.649Z,6844
2016-04-13T10:45:41.698Z,6820
2016-04-13T10:46:41.716Z,6792
2016-04-13T10:47:41.766Z,6772
2016-04-13T10:48:41.816Z,6748
2016-04-13T10:49:41.897Z,6700
2016-04-13T10:50:41.883Z,6656
2016-04-13T10:51:41.917Z,6608
2016-04-13T10:52:42.169Z,6568
2016-04-13T10:53:42.001Z,6500
2016-04-13T10:54:42.050Z,6420
2016-04-13T10:55:53.150Z,6372
2016-04-13T10:57:23.855Z,6348
2016-04-13T10:58:54.908Z,6412
2016-04-13T10:59:34.518Z,6412
2016-04-13T11:00:46.270Z,6400
2016-04-13T11:01:57.877Z,6404
2016-04-13T11:03:05.330Z,6392
2016-04-13T11:03:59.236Z,6384
2016-04-13T11:05:25.672Z,6364
2016-04-13T11:06:21.322Z,6344
2016-04-13T11:07:44.215Z,6308
2016-04-13T11:08:56.717Z,6296
2016-04-13T11:10:09.755Z,6272
2016-04-13T11:10:59.459Z,6264
2016-04-13T11:12:09.758Z,6272
2016-04-13T11:12:47.055Z,6272
2016-04-13T11:13:59.610Z,6244
2016-04-13T11:14:57.101Z,6240
2016-04-13T11:16:06.454Z,6244
2016-04-13T11:17:07.381Z,6276
2016-04-13T11:18:26.624Z,6324
2016-04-13T11:19:20.895Z,6372
2016-04-13T11:21:16.715Z,6472
2016-04-13T11:22:15.484Z,6544
2016-04-13T11:23:03.765Z,6584
2016-04-13T11:24:03.847Z,6616
2016-04-13T11:25:03.914Z,6624
2016-04-13T11:26:03.948Z,6600
2016-04-13T11:27:03.998Z,6576
2016-04-13T11:28:04.032Z,6564
2016-04-13T11:29:04.066Z,6540
2016-04-13T11:30:03.930Z,6512
2016-04-13T11:31:04.151Z,6480
2016-04-13T11:32:04.169Z,6408
2016-04-13T11:33:04.218Z,6308
2016-04-13T11:34:04.253Z,6236
2016-04-13T11:35:04.302Z,6204
2016-04-13T11:36:04.336Z,6212
2016-04-13T11:37:04.386Z,6220
2016-04-13T11:38:18.579Z,6160
2016-04-13T11:39:04.454Z,6132
2016-04-13T11:40:04.487Z,6092
2016-04-13T11:41:04.521Z,6024
2016-04-13T11:42:04.571Z,6004
2016-04-13T11:43:04.604Z,6056
2016-04-13T11:44:04.654Z,6188
2016-04-13T11:45:04.704Z,6392
2016-04-13T11:46:04.722Z,6556
2016-04-13T11:47:04.772Z,6624
2016-04-13T11:48:04.821Z,6644
2016-04-13T11:49:04.840Z,6660
2016-04-13T11:50:04.874Z,6696
2016-04-13T11:51:04.939Z,6748
2016-04-13T11:52:04.972Z,6764
2016-04-13T11:53:05.350Z,6744
2016-04-13T11:54:05.040Z,6720
2016-04-13T11:55:05.090Z,6708
2016-04-13T11:56:05.125Z,6664
2016-04-13T11:57:05.189Z,6620
2016-04-13T11:58:05.192Z,6588
2016-04-13T11:59:05.241Z,6540
2016-04-13T12:00:05.275Z,6456
2016-04-13T12:01:05.325Z,6336
2016-04-13T12:02:05.375Z,6232
2016-04-13T12:03:05.408Z,6088
2016-04-13T12:04:05.458Z,5968
2016-04-13T12:05:05.477Z,5900
2016-04-13T12:06:05.527Z,5916
2016-04-13T12:07:05.560Z,5976
2016-04-13T12:08:05.625Z,6036
2016-04-13T12:09:07.503Z,6044
2016-04-13T12:10:07.428Z,6008
2016-04-13T12:11:07.978Z,5984
2016-04-13T12:12:07.544Z,5948
2016-04-13T12:13:07.889Z,5972
2016-04-13T12:14:07.658Z,6000
2016-04-13T12:15:07.723Z,5920
2016-04-13T12:16:05.914Z,5756
2016-04-13T12:17:06.400Z,5564
2016-04-13T12:18:05.981Z,5544
2016-04-13T12:19:06.015Z,5532
2016-04-13T12:20:06.065Z,5492
2016-04-13T12:21:06.114Z,5536
2016-04-13T12:22:06.163Z,5588
2016-04-13T12:23:06.229Z,5620
2016-04-13T12:24:06.216Z,5572
2016-04-13T12:25:06.265Z,5496
2016-04-13T12:26:06.299Z,5328
2016-04-13T12:27:06.334Z,5120
2016-04-13T12:28:06.368Z,4916
2016-04-13T12:29:06.417Z,4792
2016-04-13T12:30:06.467Z,4700
2016-04-13T12:31:06.485Z,4676
2016-04-13T12:32:06.534Z,4724
2016-04-13T12:33:08.726Z,4808
2016-04-13T12:34:08.603Z,4904
2016-04-13T12:35:08.559Z,4968
2016-04-13T12:36:08.420Z,5028
2016-04-13T12:37:08.735Z,5080
2016-04-13T12:38:08.739Z,5060
2016-04-13T12:39:06.819Z,5104
2016-04-13T12:40:06.853Z,5100
2016-04-13T12:41:06.918Z,5048
2016-04-13T12:42:06.937Z,5096
2016-04-13T12:43:06.970Z,5252
2016-04-13T12:44:07.005Z,5388
2016-04-13T12:45:07.038Z,5492
2016-04-13T12:46:07.088Z,5628
2016-04-13T12:47:07.153Z,5788
2016-04-13T12:48:07.155Z,5904
2016-04-13T12:49:07.205Z,5976
2016-04-13T12:50:07.239Z,6044
2016-04-13T12:51:07.274Z,6108
2016-04-13T12:52:07.339Z,6180
2016-04-13T12:53:07.466Z,6240
2016-04-13T12:54:07.406Z,6220
2016-04-13T12:55:07.455Z,6156
2016-04-13T12:56:07.490Z,6076
2016-04-13T12:57:07.524Z,5964
2016-04-13T12:58:07.558Z,5884
2016-04-13T12:59:07.607Z,5824
2016-04-13T13:00:07.641Z,5752
2016-04-13T13:01:07.675Z,5580
2016-04-13T13:02:07.724Z,5360
2016-04-13T13:03:07.790Z,5124
2016-04-13T13:04:07.809Z,4900
2016-04-13T13:05:07.890Z,4768
2016-04-13T13:06:07.876Z,4676
2016-04-13T13:07:07.909Z,4620
2016-04-13T13:08:08.037Z,4576
2016-04-13T13:09:08.009Z,4556
2016-04-13T13:10:08.028Z,4568
2016-04-13T13:11:08.092Z,4560
2016-04-13T13:12:08.111Z,4596
2016-04-13T13:13:08.003Z,4640
2016-04-13T13:14:08.195Z,4728
2016-04-13T13:15:08.244Z,4860
2016-04-13T13:16:08.278Z,4980
2016-04-13T13:17:08.312Z,5084
2016-04-13T13:18:08.361Z,5176
2016-04-13T13:19:08.380Z,5212
2016-04-13T13:20:08.430Z,5208
2016-04-13T13:21:08.510Z,5200
2016-04-13T13:22:08.513Z,5176
2016-04-13T13:23:08.750Z,5160
2016-04-13T13:24:08.580Z,5108
2016-04-13T13:25:08.630Z,5040
2016-04-13T13:26:08.679Z,4972
2016-04-13T13:27:08.698Z,4940
2016-04-13T13:28:08.748Z,4928
2016-04-13T13:29:08.766Z,4924
2016-04-13T13:30:08.831Z,4896
2016-04-13T13:31:08.865Z,4888
2016-04-13T13:32:08.899Z,4888
2016-04-13T13:33:08.965Z,4888
2016-04-13T13:34:08.967Z,4932
2016-04-13T13:35:09.001Z,4988
2016-04-13T13:36:09.066Z,5036
2016-04-13T13:37:09.085Z,5068
2016-04-13T13:38:09.306Z,5096
2016-04-13T13:39:09.184Z,5120
2016-04-13T13:40:09.201Z,5160
2016-04-13T13:41:09.236Z,5204
2016-04-13T13:42:09.286Z,5248
2016-04-13T13:43:09.319Z,5276
2016-04-13T13:44:09.369Z,5284
2016-04-13T13:45:09.418Z,5272
2016-04-13T13:46:09.437Z,5240
2016-04-13T13:47:09.470Z,5196
2016-04-13T13:48:09.504Z,5132
2016-04-13T13:49:09.554Z,5072